KPNE/PNE METAR and TAF weather

Enter ICAO airport designator
Station Type Date Time Source
KPNE METAR 2019/02/16 16:54 UTC NOAA

KPNE 161654Z 33008KT 10SM CLR 07/M07 A2991 RMK AO2 SLP128 T00671067


Station Type Date Time Source
KPNE Decoded METAR 2019/02/16 16:54 UTC NOAA

N.E. PHILADELPHIA AIRPORT, PA, United States (KPNE) 40-05N 075-01W 28M
Feb 16, 2019 - 11:54 AM EST / 2019.02.16 1654 UTC
Wind: from the NNW (330 degrees) at 9 MPH (8 KT):0
Visibility: 10 mile(s):0
Sky conditions: clear
Temperature: 44.1 F (6.7 C)
Dew Point: 19.9 F (-6.7 C)
Relative Humidity: 37%
Pressure (altimeter): 29.91 in. Hg (1012 hPa)
ob: KPNE 161654Z 33008KT 10SM CLR 07/M07 A2991 RMK AO2 SLP128 T00671067
cycle: 17

Station Type Date Time Source
KPNE TAF 2019/02/16 18:22 UTC NOAA

TAF KPNE 161720Z 1618/1718 34012KT P6SM SCT250
FM170100 36005KT P6SM FEW250
FM171400 03005KT P6SM FEW200
FM171600 10005KT P6SM SCT200


Example: see airport list